Elko, Canada
Current Conditions -  °F | °C
As of 3:00 AM on Thursday 18 Dec 2014 (Local Time) from CYXC Reporting Station
Light Snow Light Snow  
Wind Chill: 25°   Ceiling: 4500
Heat Index: 25°   Visibility: 12mi
Dew Point: 21°   Wind: 2mph
Humidity: 86%   Direction: 90°E
Pressure: 29.96"   Gusts: NA
Location:  49.3°N, 115.12°W
Report Text: CYXC 181000Z 09002KT 12SM -SN VCFG SCT022 OVC045 M04/M06 A2996 RMK SC4SC4 SLP184
Loading
Personal Weather Stations






























Interactive Weather Map New forecast layout! Learn more

10-Day Weather Forecast

Advertisements
Track Severe Weather on mobile